Time;durP1;ratioP1;P1;durP2;ratioP2;P2;SDS_P1;SDS_P2;PMS_P1;PMS_P2;Temp;Humidity;BMP_temperature;BMP_pressure;BME280_temperature;BME280_humidity;BME280_pressure;Samples;Min_cycle;Max_cycle;Signal;HPM_P1;HPM_P2
2021/03/12 00:02:24;;;;;;;7.45;1.00;;;;;;;7.32;91.19;99871.06;5102790;27;20046;-71
2021/03/12 00:04:50;;;;;;;5.95;1.23;;;;;;;7.31;93.48;99880.03;5104834;27;20470;-70
2021/03/12 00:07:15;;;;;;;14.75;1.50;;;;;;;7.28;97.12;99890.06;5109562;27;20034;-71
2021/03/12 00:09:41;;;;;;;11.95;1.63;;;;;;;7.09;100.00;99885.03;5100379;27;20092;-71
2021/03/12 00:12:08;;;;;;;12.50;1.50;;;;;;;7.01;100.00;99892.66;5110364;27;20024;-70
2021/03/12 00:14:34;;;;;;;14.32;1.90;;;;;;;7.01;100.00;99900.66;5103956;27;20032;-70
2021/03/12 00:16:59;;;;;;;5.72;1.20;;;;;;;7.02;100.00;99893.53;5113850;27;20047;-70
2021/03/12 00:19:25;;;;;;;7.47;1.25;;;;;;;6.98;100.00;99908.84;5092132;28;20035;-71
2021/03/12 00:21:51;;;;;;;16.05;1.73;;;;;;;6.97;100.00;99903.63;5087062;28;20489;-70
2021/03/12 00:24:17;;;;;;;10.50;1.42;;;;;;;6.92;100.00;99903.88;5102644;28;20514;-70
2021/03/12 00:26:45;;;;;;;10.00;2.08;;;;;;;6.98;100.00;99903.50;5097798;28;20036;-70
2021/03/12 00:29:10;;;;;;;6.45;1.50;;;;;;;6.97;100.00;99912.50;5103979;28;20511;-70
2021/03/12 00:31:36;;;;;;;16.83;2.40;;;;;;;6.91;100.00;99913.69;5097248;28;20347;-70
2021/03/12 00:34:01;;;;;;;10.50;1.50;;;;;;;6.94;100.00;99915.34;5095780;28;20654;-70
2021/03/12 00:36:27;;;;;;;15.55;2.25;;;;;;;6.99;100.00;99915.91;5089122;28;20024;-70
2021/03/12 00:38:53;;;;;;;13.15;1.73;;;;;;;6.94;100.00;99919.81;5105484;28;20379;-69
2021/03/12 00:41:19;;;;;;;11.98;2.50;;;;;;;6.99;100.00;99920.38;5101812;27;20040;-70
2021/03/12 00:43:52;;;;;;;14.20;2.00;;;;;;;7.00;100.00;99927.44;5102162;28;20043;-69
2021/03/12 00:46:40;;;;;;;19.40;1.77;;;;;;;7.02;100.00;99925.53;5088870;28;20143;-70
2021/03/12 00:49:06;;;;;;;14.95;1.80;;;;;;;7.04;100.00;99931.59;5089180;28;20106;-70
2021/03/12 00:51:36;;;;;;;11.50;2.00;;;;;;;7.02;100.00;99942.41;5102038;28;20149;-69
2021/03/12 00:54:12;;;;;;;14.23;2.80;;;;;;;7.12;100.00;99948.88;5098444;28;20106;-69
2021/03/12 00:56:41;;;;;;;11.50;1.92;;;;;;;7.11;99.22;99944.47;5105538;27;20050;-70
2021/03/12 00:59:08;;;;;;;8.15;2.15;;;;;;;7.12;97.99;99948.88;5089043;28;20038;-71
2021/03/12 01:01:41;;;;;;;10.18;1.27;;;;;;;7.16;97.39;99955.72;5100719;28;20467;-70
2021/03/12 01:04:08;;;;;;;12.75;2.08;;;;;;;7.12;97.51;99958.69;5104622;27;20028;-70
2021/03/12 01:06:34;;;;;;;14.77;2.03;;;;;;;7.09;98.11;99969.56;5104767;27;20035;-70
2021/03/12 01:09:03;;;;;;;10.65;2.33;;;;;;;7.12;97.45;99970.22;5095190;28;20037;-70
2021/03/12 01:11:32;;;;;;;15.18;2.13;;;;;;;7.06;97.51;99977.75;5098649;28;20027;-70
2021/03/12 01:13:58;;;;;;;12.88;2.47;;;;;;;7.13;96.32;99982.63;5089609;28;20042;-69
2021/03/12 01:16:30;;;;;;;14.48;2.08;;;;;;;7.16;96.70;99981.59;5112076;27;20031;-69
2021/03/12 01:18:58;;;;;;;14.80;2.10;;;;;;;7.12;95.99;99996.91;5086502;28;20039;-71
2021/03/12 01:21:28;;;;;;;16.10;2.28;;;;;;;7.13;95.96;99987.09;5092312;28;20028;-70
2021/03/12 01:23:56;;;;;;;12.88;2.45;;;;;;;7.15;95.96;99995.88;5106420;27;20040;-70
2021/03/12 01:26:23;;;;;;;13.20;2.33;;;;;;;7.18;95.32;100001.88;5102892;28;20031;-71
2021/03/12 01:28:58;;;;;;;15.30;1.90;;;;;;;7.09;95.80;100006.91;5105503;28;20029;-69
2021/03/12 01:31:39;;;;;;;9.30;2.65;;;;;;;7.17;95.35;100009.97;5097463;28;20053;-70
2021/03/12 01:34:09;;;;;;;14.10;2.05;;;;;;;7.13;95.84;100014.63;5100777;27;20401;-70
2021/03/12 01:36:38;;;;;;;13.45;2.50;;;;;;;7.17;95.14;100023.31;5104714;27;20031;-71
2021/03/12 01:39:06;;;;;;;25.75;3.03;;;;;;;7.13;94.32;100021.78;5101147;28;20520;-70
2021/03/12 01:41:31;;;;;;;11.07;1.95;;;;;;;7.06;93.72;100023.09;5105616;27;20054;-70
2021/03/12 01:44:00;;;;;;;17.92;2.95;;;;;;;7.08;93.76;100034.56;5093873;28;20051;-71
2021/03/12 01:46:31;;;;;;;11.85;3.28;;;;;;;7.11;93.38;100029.00;5088235;28;20028;-70
2021/03/12 01:48:56;;;;;;;22.63;3.55;;;;;;;7.08;92.13;100042.56;5104245;27;20294;-70
2021/03/12 01:51:23;;;;;;;6.80;1.88;;;;;;;7.16;91.43;100046.47;5104608;27;20081;-71
2021/03/12 01:53:49;;;;;;;13.80;1.90;;;;;;;7.09;91.21;100045.13;5106610;27;20050;-70
2021/03/12 01:56:15;;;;;;;15.43;2.05;;;;;;;7.11;90.98;100045.88;5118140;27;20473;-69
2021/03/12 01:59:01;;;;;;;10.88;1.90;;;;;;;7.13;90.93;100041.31;5099033;27;20040;-71
2021/03/12 02:01:48;;;;;;;12.10;1.73;;;;;;;7.14;89.93;100042.19;5109429;27;20443;-69
2021/03/12 02:04:23;;;;;;;8.30;2.10;;;;;;;7.16;90.25;100046.47;5085660;28;20038;-71
2021/03/12 02:07:15;;;;;;;17.88;1.90;;;;;;;7.16;90.01;100046.47;5100872;28;20423;-70
2021/03/12 02:09:51;;;;;;;9.20;1.63;;;;;;;7.13;88.99;100051.13;5103253;27;20032;-69
2021/03/12 02:12:32;;;;;;;10.95;1.50;;;;;;;7.16;87.69;100056.31;5114484;27;20398;-70
2021/03/12 02:15:13;;;;;;;17.30;1.98;;;;;;;7.13;88.23;100060.00;5102749;27;20024;-71
2021/03/12 02:17:48;;;;;;;15.27;2.00;;;;;;;7.16;87.61;100058.97;5103004;27;20038;-69
2021/03/12 02:20:39;;;;;;;14.45;2.38;;;;;;;7.11;87.82;100059.22;5093388;28;20055;-71
2021/03/12 02:23:28;;;;;;;12.25;1.80;;;;;;;7.17;87.32;100066.88;5104969;27;20513;-70
2021/03/12 02:26:03;;;;;;;12.68;1.88;;;;;;;7.18;86.46;100075.72;5101378;27;20106;-70
2021/03/12 02:28:31;;;;;;;16.73;2.40;;;;;;;7.12;86.68;100068.97;5091126;28;20027;-70
2021/03/12 02:30:58;;;;;;;11.23;2.53;;;;;;;7.15;86.29;100068.78;5107890;27;20515;-70
2021/03/12 02:33:28;;;;;;;12.63;1.80;;;;;;;7.19;85.84;100085.47;5108646;27;20053;-70
2021/03/12 02:35:57;;;;;;;7.47;1.70;;;;;;;7.18;86.03;100081.94;5115410;27;20122;-70
2021/03/12 02:38:33;;;;;;;10.13;1.55;;;;;;;7.19;85.34;100077.44;5096612;27;20039;-70
2021/03/12 02:41:05;;;;;;;14.88;1.90;;;;;;;7.18;85.81;100087.25;5091863;27;20027;-70
2021/03/12 02:43:36;;;;;;;15.27;2.10;;;;;;;7.15;85.04;100090.13;5108245;27;20030;-69
2021/03/12 02:46:03;;;;;;;11.00;2.15;;;;;;;7.18;84.35;100091.75;5105017;27;20238;-71
2021/03/12 02:48:32;;;;;;;11.40;1.70;;;;;;;7.21;85.68;100091.56;5104953;27;20039;-70
2021/03/12 02:50:58;;;;;;;11.90;1.58;;;;;;;7.17;85.40;100092.69;5096185;28;20059;-69
2021/03/12 02:53:26;;;;;;;10.70;2.25;;;;;;;7.18;84.91;100102.41;5092017;28;20115;-70
2021/03/12 02:55:58;;;;;;;10.75;2.10;;;;;;;7.17;85.83;100101.56;5105652;28;20765;-70
2021/03/12 02:58:25;;;;;;;14.20;2.67;;;;;;;7.19;85.52;100093.47;5108099;27;20126;-70
2021/03/12 03:01:00;;;;;;;10.07;2.08;;;;;;;7.21;84.68;100097.78;5102233;27;20527;-70
2021/03/12 03:03:46;;;;;;;14.80;2.33;;;;;;;7.15;85.15;100103.47;5100646;28;20211;-70
2021/03/12 03:06:35;;;;;;;10.07;3.50;;;;;;;7.18;84.87;100097.94;5090217;28;20074;-68
2021/03/12 03:09:01;;;;;;;15.70;2.20;;;;;;;7.23;85.04;100105.66;5099136;28;20031;-71
2021/03/12 03:11:28;;;;;;;16.75;2.38;;;;;;;7.19;85.73;100105.00;5107638;27;20084;-70
2021/03/12 03:13:55;;;;;;;16.27;2.42;;;;;;;7.20;84.82;100112.06;5107832;28;20031;-70
2021/03/12 03:16:26;;;;;;;11.00;1.92;;;;;;;7.18;85.60;100124.63;5088441;28;20050;-70
2021/03/12 03:18:54;;;;;;;11.15;2.10;;;;;;;7.11;85.39;100117.94;5099607;28;20035;-70
2021/03/12 03:21:20;;;;;;;13.02;2.78;;;;;;;7.15;84.98;100124.84;5105089;28;20027;-70
2021/03/12 03:23:46;;;;;;;21.10;2.22;;;;;;;7.13;85.62;100113.38;5081043;28;20060;-70
2021/03/12 03:26:13;;;;;;;6.93;1.42;;;;;;;7.15;85.89;100127.50;5105701;28;20065;-71
2021/03/12 03:28:40;;;;;;;13.88;2.22;;;;;;;7.22;84.05;100126.16;5094732;28;20024;-70
2021/03/12 03:31:06;;;;;;;13.10;2.20;;;;;;;7.17;84.47;100132.72;5097663;28;20043;-70
2021/03/12 03:33:33;;;;;;;17.67;3.75;;;;;;;7.13;84.41;100126.72;5099818;28;20062;-70
2021/03/12 03:36:01;;;;;;;19.92;2.28;;;;;;;7.16;84.26;100142.53;5105169;28;20062;-71
2021/03/12 03:38:27;;;;;;;13.77;1.95;;;;;;;7.08;85.18;100142.16;5091088;28;20028;-70
2021/03/12 03:40:54;;;;;;;12.00;1.90;;;;;;;7.14;84.91;100144.47;5085921;28;20043;-70
2021/03/12 03:43:30;;;;;;;12.90;2.70;;;;;;;7.04;83.83;100140.59;5076971;28;20031;-70
2021/03/12 03:46:02;;;;;;;11.57;2.13;;;;;;;7.12;83.83;100156.16;5099121;28;20028;-70
2021/03/12 03:48:41;;;;;;;14.00;2.47;;;;;;;7.03;84.31;100149.56;5079979;28;20509;-70
2021/03/12 03:51:12;;;;;;;14.40;2.30;;;;;;;7.06;83.35;100165.38;5085315;28;20426;-70
2021/03/12 03:53:42;;;;;;;11.93;2.65;;;;;;;7.02;82.68;100157.66;5085847;28;20023;-70
2021/03/12 03:56:11;;;;;;;12.43;1.90;;;;;;;7.05;82.33;100162.81;5107489;28;20497;-69
2021/03/12 03:58:38;;;;;;;11.02;2.08;;;;;;;7.02;82.81;100168.34;5109228;27;20430;-70
2021/03/12 04:01:06;;;;;;;10.48;2.03;;;;;;;6.95;83.36;100158.97;5093488;28;20061;-70
2021/03/12 04:03:32;;;;;;;21.67;6.43;;;;;;;6.89;82.81;100160.19;5093564;28;20122;-69
2021/03/12 04:06:03;;;;;;;38.95;11.48;;;;;;;6.93;82.52;100163.53;5094695;28;20051;-70
2021/03/12 04:08:32;;;;;;;23.05;3.85;;;;;;;6.86;83.07;100163.00;5093669;28;20047;-70
2021/03/12 04:10:58;;;;;;;30.67;8.98;;;;;;;6.81;82.97;100167.75;5099438;28;20074;-70
2021/03/12 04:13:27;;;;;;;30.20;7.70;;;;;;;6.80;83.00;100166.03;5100500;28;20035;-70
2021/03/12 04:15:54;;;;;;;13.25;4.05;;;;;;;6.79;82.72;100164.31;5085777;28;20400;-70
2021/03/12 04:18:20;;;;;;;32.60;8.35;;;;;;;6.76;82.53;100164.50;5102873;28;20119;-70
2021/03/12 04:20:47;;;;;;;42.40;11.00;;;;;;;6.76;82.36;100175.16;5100193;27;20080;-70
2021/03/12 04:23:14;;;;;;;19.00;4.90;;;;;;;6.71;82.28;100177.25;5097671;28;20118;-70
2021/03/12 04:25:42;;;;;;;72.53;15.43;;;;;;;6.72;82.81;100184.31;5100775;28;20089;-70
2021/03/12 04:28:09;;;;;;;42.42;10.98;;;;;;;6.69;83.12;100182.66;5100542;28;20027;-70
2021/03/12 04:30:36;;;;;;;18.67;6.07;;;;;;;6.71;83.37;100182.59;5101842;27;20605;-70
2021/03/12 04:33:02;;;;;;;16.45;3.97;;;;;;;6.61;83.53;100182.22;5093265;28;20565;-69
2021/03/12 04:35:29;;;;;;;26.35;3.90;;;;;;;6.61;83.06;100182.22;5102404;28;20030;-70
2021/03/12 04:37:58;;;;;;;16.25;3.38;;;;;;;6.60;83.55;100185.00;5100695;27;20062;-69
2021/03/12 04:40:24;;;;;;;15.10;3.50;;;;;;;6.53;83.92;100187.16;5103937;27;20023;-70
2021/03/12 04:42:50;;;;;;;37.15;8.98;;;;;;;6.49;83.89;100191.78;5109980;27;20036;-70
2021/03/12 04:45:18;;;;;;;31.85;8.70;;;;;;;6.51;84.23;100191.69;5096693;28;20020;-70
2021/03/12 04:47:48;;;;;;;53.40;17.10;;;;;;;6.55;84.34;100197.72;5090616;28;20720;-70
2021/03/12 04:50:15;;;;;;;79.72;24.50;;;;;;;6.52;84.63;100198.75;5095959;28;20057;-70
2021/03/12 04:52:43;;;;;;;89.30;26.92;;;;;;;6.53;84.46;100200.47;5095452;27;20123;-69
2021/03/12 04:55:13;;;;;;;35.67;13.30;;;;;;;6.47;84.88;100196.34;5099706;28;20027;-71
2021/03/12 04:57:42;;;;;;;21.38;7.68;;;;;;;6.44;85.19;100195.66;5105462;27;20452;-70
2021/03/12 05:00:08;;;;;;;19.45;5.65;;;;;;;6.39;86.05;100203.03;5097154;28;20031;-70
2021/03/12 05:02:43;;;;;;;12.15;4.10;;;;;;;6.34;86.14;100197.97;5090531;28;20074;-70
2021/03/12 05:05:10;;;;;;;20.38;3.63;;;;;;;6.41;86.55;100206.50;5102965;28;20023;-70
2021/03/12 05:07:38;;;;;;;16.98;3.50;;;;;;;6.37;86.68;100213.78;5100819;27;20027;-70
2021/03/12 05:10:17;;;;;;;12.50;2.33;;;;;;;6.44;86.79;100203.66;5097632;28;20115;-71
2021/03/12 05:12:43;;;;;;;15.88;3.53;;;;;;;6.36;87.23;100213.88;5105783;27;20106;-70
2021/03/12 05:15:10;;;;;;;17.98;2.47;;;;;;;6.30;88.05;100209.72;5090581;28;20581;-70
2021/03/12 05:17:36;;;;;;;10.70;2.00;;;;;;;6.29;88.66;100213.38;5092144;27;20556;-70
2021/03/12 05:20:04;;;;;;;19.38;2.22;;;;;;;6.27;89.75;100212.56;5100009;27;20027;-70
2021/03/12 05:22:30;;;;;;;13.82;2.40;;;;;;;6.26;90.51;100218.84;5095182;27;20061;-71
2021/03/12 05:24:55;;;;;;;23.77;2.67;;;;;;;6.26;91.51;100213.53;5094727;28;20097;-69
2021/03/12 05:27:21;;;;;;;28.38;3.13;;;;;;;6.23;91.83;100211.03;5097271;28;20438;-70
2021/03/12 05:29:50;;;;;;;22.95;3.05;;;;;;;6.31;92.14;100211.47;5098253;28;20436;-70
2021/03/12 05:32:17;;;;;;;16.38;2.38;;;;;;;6.27;92.84;100215.25;5096947;28;20020;-70
2021/03/12 05:34:43;;;;;;;15.65;2.63;;;;;;;6.36;92.96;100225.38;5096061;28;20020;-70
2021/03/12 05:37:13;;;;;;;15.10;3.03;;;;;;;6.35;92.78;100218.34;5106606;28;20614;-69
2021/03/12 05:39:40;;;;;;;22.17;3.00;;;;;;;6.34;92.87;100211.31;5102560;28;20063;-69
2021/03/12 05:42:08;;;;;;;19.88;2.55;;;;;;;6.38;92.62;100215.50;5105878;28;20034;-69
2021/03/12 05:44:39;;;;;;;16.88;2.92;;;;;;;6.48;92.46;100219.38;5102501;27;20031;-70
2021/03/12 05:47:06;;;;;;;14.75;2.65;;;;;;;6.47;92.45;100216.81;5100560;27;20038;-70
2021/03/12 05:49:34;;;;;;;23.92;2.72;;;;;;;6.42;92.21;100219.72;5076819;28;20020;-70
2021/03/12 05:52:00;;;;;;;23.88;2.50;;;;;;;6.43;91.45;100212.59;5105607;28;20036;-70
2021/03/12 05:54:27;;;;;;;28.35;3.20;;;;;;;6.45;91.36;100208.91;5100753;27;20028;-71
2021/03/12 05:56:54;;;;;;;15.05;2.67;;;;;;;6.42;91.35;100214.38;5108016;27;20032;-70
2021/03/12 05:59:20;;;;;;;22.08;3.30;;;;;;;6.39;90.81;100208.38;5093688;28;20104;-70
2021/03/12 06:01:50;;;;;;;25.88;2.67;;;;;;;6.38;91.09;100223.50;5113942;27;20115;-70
2021/03/12 06:04:16;;;;;;;18.05;3.33;;;;;;;6.35;91.17;100212.16;5096037;27;20073;-70
2021/03/12 06:06:43;;;;;;;17.90;2.40;;;;;;;6.31;91.33;100211.47;5100205;28;20038;-69
2021/03/12 06:09:10;;;;;;;29.13;2.95;;;;;;;6.35;91.85;100218.34;5104173;27;20027;-70
2021/03/12 06:11:36;;;;;;;20.75;2.25;;;;;;;6.28;92.31;100216.97;5092931;28;20092;-70
2021/03/12 06:14:03;;;;;;;23.33;3.70;;;;;;;6.41;91.98;100223.34;5109508;27;20019;-69
2021/03/12 06:16:51;;;;;;;17.83;2.70;;;;;;;6.37;92.28;100218.25;5120912;27;20024;-70
2021/03/12 06:19:24;;;;;;;22.92;3.63;;;;;;;6.43;92.43;100216.13;5095752;27;20390;-69
2021/03/12 06:22:10;;;;;;;23.88;3.25;;;;;;;6.42;92.01;100214.38;5103584;27;20027;-70
2021/03/12 06:24:44;;;;;;;19.17;2.55;;;;;;;6.45;92.30;100214.22;5098852;27;20032;-69
2021/03/12 06:27:28;;;;;;;16.55;2.65;;;;;;;6.41;92.52;100212.69;5111796;27;20032;-70
2021/03/12 06:30:01;;;;;;;22.25;3.13;;;;;;;6.44;92.70;100222.31;5102767;27;20039;-70
2021/03/12 06:32:55;;;;;;;19.98;2.47;;;;;;;6.47;92.13;100217.69;5108226;27;20149;-71
2021/03/12 06:35:41;;;;;;;18.13;3.10;;;;;;;6.50;91.90;100211.31;5087761;28;20082;-70
2021/03/12 06:38:30;;;;;;;23.50;3.53;;;;;;;6.46;92.34;100210.63;5089120;27;20089;-70
2021/03/12 06:41:05;;;;;;;22.45;3.45;;;;;;;6.49;91.63;100221.09;5098785;28;20027;-70
2021/03/12 06:43:46;;;;;;;17.98;2.95;;;;;;;6.50;91.53;100209.50;5095045;28;20028;-70
2021/03/12 06:46:12;;;;;;;20.42;2.80;;;;;;;6.59;91.30;100231.28;5085434;28;20027;-70
2021/03/12 06:49:01;;;;;;;26.33;3.20;;;;;;;6.62;90.99;100220.41;5095242;28;20089;-71
2021/03/12 06:51:55;;;;;;;24.42;3.38;;;;;;;6.64;91.30;100223.88;5090398;28;20032;-70
2021/03/12 06:54:22;;;;;;;20.48;3.67;;;;;;;6.64;91.64;100223.88;5094051;28;20030;-70
2021/03/12 06:56:56;;;;;;;17.77;2.58;;;;;;;6.66;90.83;100228.19;5101983;28;20426;-71
2021/03/12 06:59:32;;;;;;;16.67;3.05;;;;;;;6.75;90.71;100224.13;5096978;28;20031;-70
2021/03/12 07:02:08;;;;;;;19.02;2.60;;;;;;;6.85;90.64;100233.34;5096174;28;20077;-70
2021/03/12 07:04:55;;;;;;;23.67;4.10;;;;;;;6.96;89.97;100236.25;5098967;28;20039;-70
2021/03/12 07:07:41;;;;;;;27.05;3.20;;;;;;;7.01;89.58;100238.66;5103059;28;20093;-69
2021/03/12 07:10:33;;;;;;;21.63;2.80;;;;;;;7.06;89.59;100240.09;5101302;28;20095;-69
2021/03/12 07:13:12;;;;;;;25.25;3.08;;;;;;;7.04;89.44;100243.78;5090579;28;20027;-71
2021/03/12 07:15:39;;;;;;;16.45;2.80;;;;;;;7.02;89.47;100243.03;5098931;28;20024;-71
2021/03/12 07:18:16;;;;;;;15.40;2.80;;;;;;;7.04;89.71;100250.00;5096124;28;20035;-70
2021/03/12 07:20:46;;;;;;;20.83;3.40;;;;;;;6.97;90.27;100251.31;5095140;28;20127;-71
2021/03/12 07:23:20;;;;;;;20.40;2.40;;;;;;;7.01;90.60;100254.66;5097765;28;20067;-70
2021/03/12 07:25:47;;;;;;;22.25;3.30;;;;;;;7.06;89.91;100242.78;5103423;28;20571;-71
2021/03/12 07:28:15;;;;;;;16.20;2.92;;;;;;;7.04;90.67;100242.00;5095612;28;20035;-70
2021/03/12 07:31:09;;;;;;;25.73;2.37;;;;;;;7.01;90.56;100257.31;5091118;28;20464;-70
2021/03/12 07:33:42;;;;;;;29.83;3.90;;;;;;;7.12;90.08;100253.09;5092367;28;20498;-70
2021/03/12 07:36:10;;;;;;;20.90;3.13;;;;;;;7.22;89.89;100262.28;5086496;28;20028;-70
2021/03/12 07:38:55;;;;;;;16.73;2.75;;;;;;;7.26;89.24;100254.97;5093983;28;20481;-71
2021/03/12 07:41:24;;;;;;;17.45;2.90;;;;;;;7.38;88.60;100256.06;5098721;28;20024;-73
2021/03/12 07:44:17;;;;;;;20.08;2.35;;;;;;;7.55;88.28;100274.63;5107998;27;20113;-71
2021/03/12 07:46:57;;;;;;;18.85;2.53;;;;;;;7.65;87.30;100270.47;5108393;28;20057;-70
2021/03/12 07:49:27;;;;;;;25.38;4.07;;;;;;;7.71;87.18;100270.13;5105095;28;20031;-71
2021/03/12 07:51:53;;;;;;;20.42;2.80;;;;;;;7.68;87.75;100270.28;5095273;28;20036;-70
2021/03/12 07:54:45;;;;;;;19.58;2.72;;;;;;;7.64;87.47;100276.75;5095806;28;20032;-71
2021/03/12 07:57:41;;;;;;;14.18;2.90;;;;;;;7.71;86.74;100272.78;5100214;27;20047;-71
2021/03/12 08:00:26;;;;;;;22.70;2.80;;;;;;;7.73;86.44;100281.53;5117567;27;20547;-70
2021/03/12 08:03:30;;;;;;;26.02;3.08;;;;;;;7.78;86.11;100281.28;5123161;27;20357;-70
2021/03/12 08:06:23;;;;;;;15.82;3.00;;;;;;;7.98;85.68;100287.13;5111471;27;20047;-71
2021/03/12 08:09:37;;;;;;;23.80;3.10;;;;;;;8.03;84.53;100300.22;5101060;27;20023;-70
2021/03/12 08:12:32;;;;;;;23.40;4.45;;;;;;;8.02;85.07;100287.84;5103952;27;20043;-71
2021/03/12 08:15:25;;;;;;;24.98;3.30;;;;;;;8.06;85.67;100284.88;5107868;27;20054;-70
2021/03/12 08:18:00;;;;;;;15.40;2.85;;;;;;;8.15;84.97;100287.94;5114227;27;20023;-70
2021/03/12 08:20:40;;;;;;;28.92;3.15;;;;;;;8.24;84.70;100298.94;5108377;27;20031;-70
2021/03/12 08:23:34;;;;;;;26.08;3.25;;;;;;;8.44;84.38;100297.72;5075357;28;20032;-70
2021/03/12 08:26:06;;;;;;;28.70;3.60;;;;;;;8.66;83.13;100287.41;5113548;27;20028;-70
2021/03/12 08:29:29;;;;;;;;;;;;;;;9.06;81.93;100287.53;5105441;27;20220;-71
2021/03/12 08:31:54;;;;;;;26.40;4.00;;;;;;;9.29;80.35;100289.56;5108655;27;19912;-71
2021/03/12 08:34:41;;;;;;;26.00;4.57;;;;;;;9.48;79.98;100290.06;5098787;27;20101;-70
2021/03/12 08:37:25;;;;;;;18.40;3.63;;;;;;;9.51;78.24;100284.47;5109650;27;20035;-70
2021/03/12 08:40:14;;;;;;;23.60;2.78;;;;;;;9.35;78.59;100291.84;5093324;27;20070;-70
2021/03/12 08:43:20;;;;;;;14.30;2.45;;;;;;;9.38;79.57;100283.56;5108294;27;20200;-71
2021/03/12 08:45:57;;;;;;;17.52;2.13;;;;;;;9.29;78.69;100289.56;5112427;27;20066;-70
2021/03/12 08:48:33;;;;;;;17.60;3.20;;;;;;;9.15;79.49;100281.56;5111745;27;20144;-71
2021/03/12 08:51:06;;;;;;;29.15;2.85;;;;;;;9.07;80.15;100278.53;5106372;27;20090;-71
2021/03/12 08:53:40;;;;;;;19.15;2.80;;;;;;;9.10;79.71;100273.84;5122010;27;20439;-70
2021/03/12 08:56:09;;;;;;;23.25;3.88;;;;;;;9.01;80.02;100290.47;5080777;28;20020;-71
2021/03/12 08:58:45;;;;;;;22.25;3.03;;;;;;;8.95;80.31;100284.69;5090009;27;20032;-71
2021/03/12 09:01:30;;;;;;;23.13;3.67;;;;;;;8.95;80.90;100285.53;5083315;27;20511;-72
2021/03/12 09:04:03;;;;;;;32.22;3.20;;;;;;;9.07;79.52;100289.25;5090986;27;20036;-71
2021/03/12 09:07:00;;;;;;;17.70;2.83;;;;;;;9.03;79.60;100287.72;5099751;27;20040;-71
2021/03/12 09:09:42;;;;;;;21.90;3.65;;;;;;;9.25;77.89;100294.28;5098007;27;20115;-71
2021/03/12 09:12:25;;;;;;;32.38;4.75;;;;;;;9.13;76.82;100283.50;5104871;27;20384;-71
2021/03/12 09:14:57;;;;;;;25.40;3.70;;;;;;;9.25;76.95;100282.69;5102013;27;20028;-71
2021/03/12 09:17:23;;;;;;;30.50;3.80;;;;;;;9.37;76.68;100297.97;5110861;27;20020;-70
2021/03/12 09:19:54;;;;;;;22.88;3.80;;;;;;;9.42;77.31;100295.81;5103554;27;20051;-70
2021/03/12 09:22:25;;;;;;;20.88;3.20;;;;;;;9.84;75.33;100315.34;5108277;27;20028;-71
2021/03/12 09:24:56;;;;;;;17.95;3.28;;;;;;;9.84;74.05;100301.94;5108136;27;20055;-71
2021/03/12 09:27:35;;;;;;;21.17;2.92;;;;;;;9.93;73.79;100296.81;5095536;27;20091;-72
2021/03/12 09:30:46;;;;;;;21.85;3.08;;;;;;;10.04;73.58;100286.22;5105998;27;20036;-70
2021/03/12 09:33:42;;;;;;;18.63;4.18;;;;;;;10.05;72.53;100284.41;5095717;28;20065;-72
2021/03/12 09:36:26;;;;;;;21.67;2.35;;;;;;;10.06;72.69;100276.22;5101480;27;20033;-71
2021/03/12 09:38:53;;;;;;;16.30;3.10;;;;;;;10.15;72.35;100275.59;5098687;28;20045;-71
2021/03/12 09:41:26;;;;;;;17.73;2.72;;;;;;;10.31;71.57;100264.69;5121202;27;20083;-70
2021/03/12 09:44:02;;;;;;;13.98;2.08;;;;;;;10.26;70.98;100264.16;5105218;27;20039;-71
2021/03/12 09:46:34;;;;;;;22.52;3.63;;;;;;;10.36;70.84;100250.97;5109592;27;20675;-71
2021/03/12 09:49:14;;;;;;;14.77;2.78;;;;;;;10.41;70.13;100260.41;5115579;27;20038;-74
2021/03/12 09:51:44;;;;;;;12.93;2.33;;;;;;;10.35;70.75;100271.56;5096435;27;20035;-71
2021/03/12 09:54:12;;;;;;;24.02;4.07;;;;;;;10.22;70.06;100259.97;5114112;27;20023;-71
2021/03/12 09:56:46;;;;;;;20.40;3.63;;;;;;;10.14;71.03;100224.75;5098048;27;20094;-70
2021/03/12 09:59:13;;;;;;;22.67;3.58;;;;;;;10.34;70.40;100259.13;5120810;27;20039;-71
2021/03/12 10:02:07;;;;;;;20.20;2.60;;;;;;;10.63;69.16;100269.59;5111813;27;20031;-71
2021/03/12 10:04:59;;;;;;;20.13;3.67;;;;;;;10.32;67.64;100270.91;5109567;27;20065;-72
2021/03/12 10:07:47;;;;;;;23.17;3.47;;;;;;;10.22;70.52;100254.63;5108047;27;20092;-72
2021/03/12 10:10:28;;;;;;;19.13;3.00;;;;;;;10.29;69.08;100266.63;5101712;27;20028;-72
2021/03/12 10:12:59;;;;;;;13.13;2.10;;;;;;;10.27;68.86;100265.00;5109190;27;20036;-72
2021/03/12 10:15:29;;;;;;;13.00;2.10;;;;;;;10.30;69.37;100246.03;5108672;27;20028;-70
2021/03/12 10:18:19;;;;;;;23.60;2.20;;;;;;;10.57;70.23;100259.28;5108295;27;20147;-71
2021/03/12 10:20:44;;;;;;;24.30;3.10;;;;;;;10.62;67.85;100265.19;5102347;27;20044;-71
2021/03/12 10:23:10;;;;;;;17.92;1.95;;;;;;;10.50;67.12;100250.81;5115816;27;20042;-72
2021/03/12 10:25:37;;;;;;;20.38;2.25;;;;;;;10.51;68.40;100248.03;5114000;27;20030;-71
2021/03/12 10:28:08;;;;;;;19.48;3.60;;;;;;;10.64;67.10;100249.84;5115398;27;20785;-72
2021/03/12 10:30:35;;;;;;;17.38;2.05;;;;;;;10.57;66.39;100251.25;5080345;27;20040;-71
2021/03/12 10:33:06;;;;;;;18.58;2.47;;;;;;;10.44;66.66;100243.22;5114376;27;20037;-71
2021/03/12 10:35:35;;;;;;;22.38;3.33;;;;;;;10.37;66.71;100232.06;5119462;27;20031;-72
2021/03/12 10:38:14;;;;;;;18.00;2.60;;;;;;;10.42;66.81;100245.16;5099321;27;20019;-70
2021/03/12 10:40:42;;;;;;;22.60;2.10;;;;;;;10.42;66.38;100251.38;5112792;27;20073;-70
2021/03/12 10:43:27;;;;;;;13.05;2.42;;;;;;;10.48;66.45;100229.50;5112366;27;20118;-71
2021/03/12 10:46:02;;;;;;;25.63;3.50;;;;;;;10.62;66.68;100224.94;5092655;28;20493;-72
2021/03/12 10:48:41;;;;;;;25.38;3.72;;;;;;;10.61;65.40;100213.38;5087388;28;20032;-70
2021/03/12 10:51:07;;;;;;;19.52;3.53;;;;;;;10.63;66.13;100215.91;5102243;28;20672;-71
2021/03/12 10:53:47;;;;;;;18.05;2.60;;;;;;;10.62;64.89;100219.56;5108611;27;20035;-71
2021/03/12 10:56:14;;;;;;;23.98;3.45;;;;;;;10.74;65.60;100207.97;5114832;27;20554;-71
2021/03/12 10:58:39;;;;;;;21.88;2.85;;;;;;;10.93;65.60;100200.25;5108151;27;20043;-71
2021/03/12 11:01:06;;;;;;;27.88;2.47;;;;;;;11.03;63.62;100200.44;5107658;27;20024;-72
2021/03/12 11:03:31;;;;;;;19.58;2.25;;;;;;;10.98;64.95;100192.72;5107799;27;20122;-70
2021/03/12 11:05:57;;;;;;;10.38;1.92;;;;;;;11.06;63.21;100187.63;5110251;27;20126;-71
2021/03/12 11:08:23;;;;;;;20.48;2.40;;;;;;;10.93;63.03;100186.81;5116238;27;20365;-73
2021/03/12 11:10:48;;;;;;;17.40;2.88;;;;;;;11.03;62.09;100182.50;5093929;28;20031;-72
2021/03/12 11:13:14;;;;;;;23.92;3.10;;;;;;;11.01;61.62;100178.19;5103511;28;20036;-72
2021/03/12 11:15:40;;;;;;;14.98;2.22;;;;;;;11.08;62.78;100184.81;5115150;28;20130;-71
2021/03/12 11:18:05;;;;;;;17.95;1.88;;;;;;;11.02;60.12;100180.78;5105099;28;20551;-72
2021/03/12 11:20:31;;;;;;;19.42;2.35;;;;;;;10.92;61.52;100175.22;5109007;28;20024;-72
2021/03/12 11:22:56;;;;;;;14.85;2.53;;;;;;;11.14;61.39;100163.75;5105399;28;20717;-70
2021/03/12 11:25:22;;;;;;;7.85;1.80;;;;;;;11.20;61.50;100173.16;5095933;28;20032;-72
2021/03/12 11:27:47;;;;;;;18.30;2.17;;;;;;;11.28;60.26;100160.00;5096643;28;20501;-70
2021/03/12 11:30:18;;;;;;;15.35;2.15;;;;;;;11.35;59.33;100156.75;5100947;28;20104;-72
2021/03/12 11:32:44;;;;;;;14.63;2.10;;;;;;;11.24;60.20;100170.13;5107070;27;20513;-71
2021/03/12 11:35:10;;;;;;;10.55;2.30;;;;;;;11.25;59.52;100161.09;5117774;27;20028;-71
2021/03/12 11:37:36;;;;;;;17.08;1.95;;;;;;;11.27;60.90;100164.53;5114848;27;20555;-70
2021/03/12 11:40:03;;;;;;;13.50;2.58;;;;;;;11.23;60.84;100146.91;5104150;27;20031;-71
2021/03/12 11:42:28;;;;;;;13.90;2.17;;;;;;;11.18;61.85;100154.47;5107167;27;20035;-72
2021/03/12 11:44:54;;;;;;;10.55;2.33;;;;;;;11.36;61.50;100136.94;5114358;27;20039;-71
2021/03/12 11:47:19;;;;;;;15.23;2.65;;;;;;;11.51;60.86;100140.28;5111842;27;20030;-71
2021/03/12 11:49:47;;;;;;;16.92;1.73;;;;;;;11.46;60.95;100120.13;5108637;27;20054;-71
2021/03/12 11:52:17;;;;;;;15.30;1.80;;;;;;;11.42;58.89;100124.84;5113975;27;20446;-72